Time;durP1;ratioP1;P1;durP2;ratioP2;P2;SDS_P1;SDS_P2;PMS_P1;PMS_P2;Temp;Humidity;BMP_temperature;BMP_pressure;BME280_temperature;BME280_humidity;BME280_pressure;Samples;Min_cycle;Max_cycle;Signal;HPM_P1;HPM_P2
2023/04/21 00:00:55;;;;;;;5.18;3.40;;;;;;;;;;5109147;28;20475;-60
2023/04/21 00:03:26;;;;;;;5.45;3.78;;;;;;;;;;5106584;28;20032;-62
2023/04/21 00:05:52;;;;;;;4.50;3.65;;;;;;;;;;5105982;28;20369;-60
2023/04/21 00:08:19;;;;;;;4.53;3.75;;;;;;;;;;5108704;28;20027;-62
2023/04/21 00:10:45;;;;;;;4.38;3.42;;;;;;;;;;5107545;28;20027;-61
2023/04/21 00:13:12;;;;;;;5.30;3.40;;;;;;;;;;5107183;28;21488;-61
2023/04/21 00:15:38;;;;;;;5.45;3.72;;;;;;;;;;5105439;28;20043;-61
2023/04/21 00:18:05;;;;;;;4.53;3.50;;;;;;;;;;5104891;28;20027;-61
2023/04/21 00:20:31;;;;;;;3.90;3.50;;;;;;;;;;5104611;28;20027;-61
2023/04/21 00:22:57;;;;;;;4.13;3.15;;;;;;;;;;5105940;28;20036;-60
2023/04/21 00:25:24;;;;;;;4.32;3.65;;;;;;;;;;5105098;28;20058;-61
2023/04/21 00:27:50;;;;;;;4.05;3.53;;;;;;;;;;5104926;28;20032;-61
2023/04/21 00:30:16;;;;;;;4.13;3.33;;;;;;;;;;5105103;28;20080;-61
2023/04/21 00:32:42;;;;;;;5.75;3.55;;;;;;;;;;5104507;28;20106;-61
2023/04/21 00:35:08;;;;;;;5.18;4.28;;;;;;;;;;5106564;28;20089;-63
2023/04/21 00:37:35;;;;;;;6.47;3.70;;;;;;;;;;5105054;28;20433;-61
2023/04/21 00:40:01;;;;;;;4.32;3.55;;;;;;;;;;5107345;28;20031;-69
2023/04/21 00:42:27;;;;;;;4.20;3.45;;;;;;;;;;5107423;28;20039;-61
2023/04/21 00:44:53;;;;;;;4.05;3.15;;;;;;;;;;5104738;28;20088;-61
2023/04/21 00:47:19;;;;;;;5.53;3.53;;;;;;;;;;5104933;28;20038;-60
2023/04/21 00:49:46;;;;;;;4.80;3.47;;;;;;;;;;5104547;28;20031;-61
2023/04/21 00:52:13;;;;;;;3.70;3.10;;;;;;;;;;5104926;28;20031;-61
2023/04/21 00:54:39;;;;;;;6.10;3.28;;;;;;;;;;5104864;28;20065;-61
2023/04/21 00:57:06;;;;;;;4.25;3.42;;;;;;;;;;5105003;28;20046;-63
2023/04/21 00:59:32;;;;;;;4.50;3.70;;;;;;;;;;5105790;28;20036;-61
2023/04/21 01:01:58;;;;;;;5.00;3.95;;;;;;;;;;5106792;28;20114;-60
2023/04/21 01:04:25;;;;;;;4.85;3.50;;;;;;;;;;5106582;28;20089;-60
2023/04/21 01:06:51;;;;;;;4.13;3.53;;;;;;;;;;5104339;28;20051;-60
2023/04/21 01:09:17;;;;;;;4.68;3.97;;;;;;;;;;5108911;28;20106;-60
2023/04/21 01:12:01;;;;;;;8.07;4.28;;;;;;;;;;5107816;28;20072;-61
2023/04/21 01:14:26;;;;;;;4.30;3.17;;;;;;;;;;5108896;28;20035;-60
2023/04/21 01:16:52;;;;;;;4.57;3.40;;;;;;;;;;5108292;28;20484;-68
2023/04/21 01:19:19;;;;;;;4.03;3.60;;;;;;;;;;5108946;28;20486;-60
2023/04/21 01:21:45;;;;;;;3.83;3.10;;;;;;;;;;5108001;28;20140;-60
2023/04/21 01:24:11;;;;;;;4.55;3.60;;;;;;;;;;5108134;28;20071;-60
2023/04/21 01:26:38;;;;;;;4.13;3.33;;;;;;;;;;5107880;28;20031;-60
2023/04/21 01:29:04;;;;;;;4.05;3.08;;;;;;;;;;5108613;28;20134;-61
2023/04/21 01:31:30;;;;;;;4.32;3.40;;;;;;;;;;5108017;28;20435;-60
2023/04/21 01:33:56;;;;;;;5.75;3.50;;;;;;;;;;5108448;27;20039;-60
2023/04/21 01:36:22;;;;;;;5.40;3.60;;;;;;;;;;5110143;28;20027;-60
2023/04/21 01:38:48;;;;;;;4.22;3.67;;;;;;;;;;5110886;28;20433;-60
2023/04/21 01:41:14;;;;;;;4.05;3.33;;;;;;;;;;5109397;28;20035;-60
2023/04/21 01:43:40;;;;;;;4.35;3.45;;;;;;;;;;5109172;28;20031;-62
2023/04/21 01:46:06;;;;;;;3.25;2.92;;;;;;;;;;5108016;28;20059;-63
2023/04/21 01:48:32;;;;;;;5.15;3.28;;;;;;;;;;5107508;28;20491;-62
2023/04/21 01:50:58;;;;;;;4.00;2.92;;;;;;;;;;5107898;28;20072;-60
2023/04/21 01:53:25;;;;;;;4.30;3.45;;;;;;;;;;5108750;28;20403;-60
2023/04/21 01:55:51;;;;;;;5.13;3.40;;;;;;;;;;5108282;28;20091;-60
2023/04/21 01:58:17;;;;;;;4.55;3.50;;;;;;;;;;5107778;28;20819;-60
2023/04/21 02:00:43;;;;;;;3.95;3.33;;;;;;;;;;5108800;28;20047;-68
2023/04/21 02:03:09;;;;;;;4.10;3.33;;;;;;;;;;5112904;28;20074;-61
2023/04/21 02:05:35;;;;;;;6.32;3.33;;;;;;;;;;5109034;28;20096;-60
2023/04/21 02:08:01;;;;;;;4.45;2.92;;;;;;;;;;5109191;28;20038;-60
2023/04/21 02:10:27;;;;;;;4.63;3.58;;;;;;;;;;5111395;28;20398;-60
2023/04/21 02:12:53;;;;;;;4.93;3.55;;;;;;;;;;5108853;27;20042;-60
2023/04/21 02:15:19;;;;;;;3.55;2.83;;;;;;;;;;5107980;28;20024;-60
2023/04/21 02:17:45;;;;;;;3.92;3.08;;;;;;;;;;5107546;28;20384;-62
2023/04/21 02:20:11;;;;;;;3.67;3.10;;;;;;;;;;5107278;28;20035;-63
2023/04/21 02:22:38;;;;;;;3.60;2.80;;;;;;;;;;5105562;28;20040;-60
2023/04/21 02:25:05;;;;;;;3.38;2.97;;;;;;;;;;5108044;28;20104;-67
2023/04/21 02:27:31;;;;;;;4.47;2.92;;;;;;;;;;5106445;28;20126;-65
2023/04/21 02:29:57;;;;;;;5.72;3.45;;;;;;;;;;5107358;28;20144;-61
2023/04/21 02:32:22;;;;;;;3.92;3.22;;;;;;;;;;5106939;28;20708;-60
2023/04/21 02:34:48;;;;;;;4.05;3.03;;;;;;;;;;5107850;28;20427;-59
2023/04/21 02:37:14;;;;;;;3.40;2.80;;;;;;;;;;5108354;28;20032;-61
2023/04/21 02:39:42;;;;;;;4.65;3.17;;;;;;;;;;5110209;28;20407;-60
2023/04/21 02:42:08;;;;;;;3.70;2.95;;;;;;;;;;5107197;28;20050;-60
2023/04/21 02:44:37;;;;;;;4.00;3.28;;;;;;;;;;5107584;28;20044;-59
2023/04/21 02:47:03;;;;;;;4.43;3.15;;;;;;;;;;5107120;28;20031;-60
2023/04/21 02:49:29;;;;;;;4.20;3.08;;;;;;;;;;5106700;28;20038;-59
2023/04/21 02:51:55;;;;;;;4.32;3.22;;;;;;;;;;5107054;28;20024;-59
2023/04/21 02:54:21;;;;;;;3.25;2.75;;;;;;;;;;5109533;28;20061;-60
2023/04/21 02:56:47;;;;;;;4.20;3.28;;;;;;;;;;5106458;28;21830;-60
2023/04/21 02:59:15;;;;;;;4.03;3.13;;;;;;;;;;5106559;28;20050;-60
2023/04/21 03:01:41;;;;;;;4.63;3.20;;;;;;;;;;5109366;28;20028;-59
2023/04/21 03:04:07;;;;;;;3.78;3.03;;;;;;;;;;5107166;28;20123;-60
2023/04/21 03:06:33;;;;;;;4.68;3.10;;;;;;;;;;5106645;28;20110;-60
2023/04/21 03:09:00;;;;;;;5.05;3.70;;;;;;;;;;5110018;28;20023;-61
2023/04/21 03:11:26;;;;;;;4.15;3.13;;;;;;;;;;5107290;27;20035;-61
2023/04/21 03:13:52;;;;;;;3.53;2.75;;;;;;;;;;5107046;28;20030;-64
2023/04/21 03:16:18;;;;;;;4.10;3.45;;;;;;;;;;5106653;28;20020;-64
2023/04/21 03:18:44;;;;;;;3.63;2.78;;;;;;;;;;5106376;28;20024;-61
2023/04/21 03:21:11;;;;;;;4.93;3.22;;;;;;;;;;5106584;28;20426;-60
2023/04/21 03:23:36;;;;;;;4.15;3.33;;;;;;;;;;5105713;28;20457;-61
2023/04/21 03:26:06;;;;;;;3.53;2.67;;;;;;;;;;5106050;28;20027;-60
2023/04/21 03:28:33;;;;;;;4.25;3.40;;;;;;;;;;5105823;28;20023;-61
2023/04/21 03:30:59;;;;;;;3.05;2.55;;;;;;;;;;5106233;28;20552;-63
2023/04/21 03:33:25;;;;;;;3.63;2.83;;;;;;;;;;5106504;28;20035;-59
2023/04/21 03:35:51;;;;;;;3.53;3.03;;;;;;;;;;5106903;28;20031;-60
2023/04/21 03:38:16;;;;;;;3.65;3.25;;;;;;;;;;5107457;28;20120;-60
2023/04/21 03:40:43;;;;;;;4.35;3.47;;;;;;;;;;5108532;28;20023;-62
2023/04/21 03:43:09;;;;;;;3.95;3.55;;;;;;;;;;5105825;28;20062;-60
2023/04/21 03:45:35;;;;;;;3.75;3.00;;;;;;;;;;5106885;28;20023;-61
2023/04/21 03:48:01;;;;;;;3.83;2.72;;;;;;;;;;5106460;28;20023;-62
2023/04/21 03:50:27;;;;;;;3.00;2.60;;;;;;;;;;5106304;28;20077;-65
2023/04/21 03:52:54;;;;;;;4.18;2.95;;;;;;;;;;5105986;28;20043;-60
2023/04/21 03:55:20;;;;;;;4.35;3.50;;;;;;;;;;5107511;28;20027;-60
2023/04/21 03:57:46;;;;;;;3.80;3.00;;;;;;;;;;5105419;27;21689;-60
2023/04/21 04:00:12;;;;;;;3.72;3.00;;;;;;;;;;5108273;28;20023;-62
2023/04/21 04:02:38;;;;;;;6.65;3.13;;;;;;;;;;5105758;28;20027;-60
2023/04/21 04:05:05;;;;;;;4.35;3.13;;;;;;;;;;5105334;28;20052;-63
2023/04/21 04:07:34;;;;;;;4.40;3.15;;;;;;;;;;5106594;28;20036;-60
2023/04/21 04:09:59;;;;;;;4.70;3.00;;;;;;;;;;5107273;28;20059;-60
2023/04/21 04:12:26;;;;;;;3.92;3.00;;;;;;;;;;5106469;28;20124;-61
2023/04/21 04:14:52;;;;;;;4.82;3.20;;;;;;;;;;5106042;28;20134;-59
2023/04/21 04:17:18;;;;;;;3.38;2.80;;;;;;;;;;5105368;28;20050;-60
2023/04/21 04:19:44;;;;;;;3.50;3.20;;;;;;;;;;5104715;28;20487;-60
2023/04/21 04:22:10;;;;;;;3.85;2.80;;;;;;;;;;5105163;28;20130;-61
2023/04/21 04:24:36;;;;;;;3.67;2.80;;;;;;;;;;5104747;28;20050;-67
2023/04/21 04:27:02;;;;;;;3.85;2.95;;;;;;;;;;5105011;28;20499;-60
2023/04/21 04:29:29;;;;;;;3.53;3.00;;;;;;;;;;5105436;28;20032;-60
2023/04/21 04:31:56;;;;;;;4.78;2.80;;;;;;;;;;5106162;28;20031;-60
2023/04/21 04:34:23;;;;;;;3.95;3.20;;;;;;;;;;5104962;28;20032;-60
2023/04/21 04:36:52;;;;;;;4.22;3.30;;;;;;;;;;5105843;28;20053;-60
2023/04/21 04:39:18;;;;;;;3.47;2.63;;;;;;;;;;5107594;28;20177;-60
2023/04/21 04:41:45;;;;;;;3.17;2.63;;;;;;;;;;5106197;28;20391;-59
2023/04/21 04:44:14;;;;;;;3.75;2.80;;;;;;;;;;5105501;28;20036;-60
2023/04/21 04:46:40;;;;;;;4.35;3.20;;;;;;;;;;5104820;28;20077;-60
2023/04/21 04:49:06;;;;;;;4.22;2.53;;;;;;;;;;5104888;28;20415;-60
2023/04/21 04:51:32;;;;;;;4.13;3.30;;;;;;;;;;5104372;28;20042;-62
2023/04/21 04:53:58;;;;;;;3.83;3.17;;;;;;;;;;5105184;28;20047;-61
2023/04/21 04:56:24;;;;;;;3.60;2.97;;;;;;;;;;5104864;28;20062;-60
2023/04/21 04:58:50;;;;;;;3.80;3.28;;;;;;;;;;5105002;28;20103;-60
2023/04/21 05:01:16;;;;;;;3.55;2.95;;;;;;;;;;5107956;28;20296;-70
2023/04/21 05:03:43;;;;;;;3.25;2.63;;;;;;;;;;5104466;28;20051;-63
2023/04/21 05:06:09;;;;;;;3.35;2.78;;;;;;;;;;5104285;28;20031;-61
2023/04/21 05:08:35;;;;;;;4.72;3.22;;;;;;;;;;5108117;28;20490;-60
2023/04/21 05:11:01;;;;;;;4.95;2.67;;;;;;;;;;5105694;28;20032;-67
2023/04/21 05:13:27;;;;;;;2.80;2.50;;;;;;;;;;5105618;28;20032;-68
2023/04/21 05:15:57;;;;;;;3.53;2.50;;;;;;;;;;5106074;28;20042;-68
2023/04/21 05:18:23;;;;;;;3.75;3.22;;;;;;;;;;5105864;28;20027;-63
2023/04/21 05:20:49;;;;;;;3.35;2.80;;;;;;;;;;5104384;28;20065;-71
2023/04/21 05:23:15;;;;;;;3.80;3.20;;;;;;;;;;5108313;28;20031;-60
2023/04/21 05:25:41;;;;;;;3.60;3.20;;;;;;;;;;5110502;28;20030;-60
2023/04/21 05:28:07;;;;;;;4.20;2.80;;;;;;;;;;5110912;28;20031;-60
2023/04/21 05:30:33;;;;;;;5.28;2.95;;;;;;;;;;5110658;28;20471;-60
2023/04/21 05:32:59;;;;;;;4.05;2.90;;;;;;;;;;5111202;28;20073;-60
2023/04/21 05:35:25;;;;;;;5.00;3.15;;;;;;;;;;5111308;28;20020;-59
2023/04/21 05:37:51;;;;;;;4.40;3.13;;;;;;;;;;5110920;28;20039;-61
2023/04/21 05:40:17;;;;;;;4.35;3.05;;;;;;;;;;5110944;28;20051;-62
2023/04/21 05:42:43;;;;;;;3.92;3.10;;;;;;;;;;5105958;28;20097;-60
2023/04/21 05:45:10;;;;;;;3.72;3.22;;;;;;;;;;5105905;28;20015;-59
2023/04/21 05:47:37;;;;;;;3.42;2.72;;;;;;;;;;5104894;28;20031;-68
2023/04/21 05:50:03;;;;;;;4.20;3.25;;;;;;;;;;5104846;28;20534;-65
2023/04/21 05:52:29;;;;;;;3.67;2.55;;;;;;;;;;5104491;28;20039;-59
2023/04/21 05:54:55;;;;;;;4.65;3.28;;;;;;;;;;5104966;28;20028;-59
2023/04/21 05:57:21;;;;;;;3.40;2.90;;;;;;;;;;5105583;28;20032;-64
2023/04/21 05:59:47;;;;;;;3.55;2.80;;;;;;;;;;5108130;28;20031;-60
2023/04/21 06:02:13;;;;;;;3.05;2.55;;;;;;;;;;5111959;28;20052;-59
2023/04/21 06:04:39;;;;;;;3.20;2.58;;;;;;;;;;5111078;28;20039;-67
2023/04/21 06:07:09;;;;;;;3.13;2.80;;;;;;;;;;5108930;28;20024;-59
2023/04/21 06:09:35;;;;;;;2.78;2.47;;;;;;;;;;5112193;28;20453;-63
2023/04/21 06:12:01;;;;;;;3.97;2.92;;;;;;;;;;5109572;28;20042;-59
2023/04/21 06:14:28;;;;;;;6.32;2.80;;;;;;;;;;5110161;28;20458;-59
2023/04/21 06:16:54;;;;;;;3.08;2.63;;;;;;;;;;5108378;28;20015;-59
2023/04/21 06:19:20;;;;;;;2.78;2.58;;;;;;;;;;5109108;27;20028;-67
2023/04/21 06:21:46;;;;;;;3.80;2.80;;;;;;;;;;5108057;27;20031;-58
2023/04/21 06:24:11;;;;;;;3.17;2.63;;;;;;;;;;5108150;28;20031;-60
2023/04/21 06:26:37;;;;;;;3.72;2.92;;;;;;;;;;5107401;28;20042;-62
2023/04/21 06:29:03;;;;;;;2.92;2.50;;;;;;;;;;5108278;28;20027;-60
2023/04/21 06:31:29;;;;;;;3.63;2.45;;;;;;;;;;5107363;27;20055;-63
2023/04/21 06:33:56;;;;;;;3.05;2.75;;;;;;;;;;5108031;28;20073;-61
2023/04/21 06:36:22;;;;;;;3.50;2.67;;;;;;;;;;5109060;28;20026;-62
2023/04/21 06:38:48;;;;;;;3.38;2.80;;;;;;;;;;5110068;28;20023;-61
2023/04/21 06:41:14;;;;;;;4.88;3.28;;;;;;;;;;5109023;28;20059;-63
2023/04/21 06:43:40;;;;;;;4.63;3.22;;;;;;;;;;5107471;28;20040;-60
2023/04/21 06:46:06;;;;;;;4.22;3.03;;;;;;;;;;5109421;28;20024;-61
2023/04/21 06:48:32;;;;;;;4.45;3.20;;;;;;;;;;5111668;28;20024;-65
2023/04/21 06:50:59;;;;;;;3.58;2.50;;;;;;;;;;5113508;28;20020;-59
2023/04/21 06:53:25;;;;;;;2.83;2.58;;;;;;;;;;5112791;28;20035;-59
2023/04/21 06:55:52;;;;;;;3.92;2.90;;;;;;;;;;5113328;28;20020;-59
2023/04/21 06:58:18;;;;;;;3.67;3.25;;;;;;;;;;5113324;28;20110;-60
2023/04/21 07:00:44;;;;;;;3.67;3.00;;;;;;;;;;5113222;28;20048;-61
2023/04/21 07:03:10;;;;;;;3.33;2.90;;;;;;;;;;5113381;28;20058;-59
2023/04/21 07:05:36;;;;;;;5.20;3.45;;;;;;;;;;5113121;28;20489;-59
2023/04/21 07:08:02;;;;;;;4.28;3.10;;;;;;;;;;5112748;28;20051;-59
2023/04/21 07:10:28;;;;;;;3.42;2.97;;;;;;;;;;5112906;28;20027;-60
2023/04/21 07:12:54;;;;;;;3.67;2.92;;;;;;;;;;5113274;28;20027;-60
2023/04/21 07:15:20;;;;;;;6.25;2.80;;;;;;;;;;5112317;28;20093;-64
2023/04/21 07:17:47;;;;;;;3.50;2.80;;;;;;;;;;5111332;28;20479;-68
2023/04/21 07:20:13;;;;;;;3.13;2.60;;;;;;;;;;5112570;28;20491;-61
2023/04/21 07:22:39;;;;;;;3.85;3.22;;;;;;;;;;5112452;28;20053;-59
2023/04/21 07:25:05;;;;;;;3.97;3.00;;;;;;;;;;5112032;28;20016;-60
2023/04/21 07:27:32;;;;;;;7.80;2.78;;;;;;;;;;5112265;28;20032;-60
2023/04/21 07:29:58;;;;;;;6.03;2.67;;;;;;;;;;5112983;28;20065;-62
2023/04/21 07:32:24;;;;;;;2.95;2.63;;;;;;;;;;5112985;28;20091;-61
2023/04/21 07:34:50;;;;;;;4.22;2.03;;;;;;;;;;5112456;28;20111;-61
2023/04/21 07:37:16;;;;;;;4.88;3.00;;;;;;;;;;5112044;28;20069;-61
2023/04/21 07:39:42;;;;;;;5.38;3.13;;;;;;;;;;5111566;28;20072;-66
2023/04/21 07:42:09;;;;;;;4.68;3.22;;;;;;;;;;5109168;28;20099;-64
2023/04/21 07:44:35;;;;;;;4.28;2.72;;;;;;;;;;5110751;27;20114;-70
2023/04/21 07:47:01;;;;;;;4.32;3.17;;;;;;;;;;5112527;28;20028;-61
2023/04/21 07:49:27;;;;;;;3.75;3.00;;;;;;;;;;5112798;28;20043;-60
2023/04/21 07:51:53;;;;;;;6.57;3.05;;;;;;;;;;5112056;28;20035;-60
2023/04/21 07:54:19;;;;;;;5.90;3.95;;;;;;;;;;5112598;28;20031;-62
2023/04/21 07:56:45;;;;;;;4.03;3.28;;;;;;;;;;5112192;27;20069;-60
2023/04/21 07:59:11;;;;;;;6.40;4.28;;;;;;;;;;5111333;28;20073;-58
2023/04/21 08:01:37;;;;;;;5.57;3.60;;;;;;;;;;5111527;28;20031;-59
2023/04/21 08:04:03;;;;;;;5.15;3.78;;;;;;;;;;5110589;28;20496;-60
2023/04/21 08:06:29;;;;;;;5.15;3.80;;;;;;;;;;5112215;27;20115;-61
2023/04/21 08:08:55;;;;;;;4.10;3.40;;;;;;;;;;5111536;28;20015;-59
2023/04/21 08:11:21;;;;;;;5.72;4.60;;;;;;;;;;5120302;27;20486;-59
2023/04/21 08:13:47;;;;;;;5.10;4.35;;;;;;;;;;5125652;27;20030;-59
2023/04/21 08:16:13;;;;;;;6.43;4.82;;;;;;;;;;5115251;27;20035;-60
2023/04/21 08:18:39;;;;;;;5.03;4.18;;;;;;;;;;5115739;27;20023;-60
2023/04/21 08:21:05;;;;;;;5.90;4.30;;;;;;;;;;5123899;27;20104;-60
2023/04/21 08:23:31;;;;;;;7.75;4.13;;;;;;;;;;5112243;27;20028;-60
2023/04/21 08:25:57;;;;;;;5.55;4.68;;;;;;;;;;5111448;28;20047;-60
2023/04/21 08:28:23;;;;;;;6.35;4.65;;;;;;;;;;5114116;27;20053;-60
2023/04/21 08:30:49;;;;;;;9.02;4.88;;;;;;;;;;5127010;27;20045;-59
2023/04/21 08:33:15;;;;;;;8.13;5.45;;;;;;;;;;5117710;27;20502;-60
2023/04/21 08:35:41;;;;;;;6.95;5.45;;;;;;;;;;5118152;27;20028;-61
2023/04/21 08:38:08;;;;;;;8.90;4.93;;;;;;;;;;5126441;27;20106;-60
2023/04/21 08:40:35;;;;;;;7.85;5.43;;;;;;;;;;5114635;27;20525;-60
2023/04/21 08:43:01;;;;;;;6.93;4.82;;;;;;;;;;5112408;28;20027;-60
2023/04/21 08:45:29;;;;;;;7.07;4.95;;;;;;;;;;5112758;28;20026;-59
2023/04/21 08:47:55;;;;;;;5.38;4.88;;;;;;;;;;5112915;28;20467;-59
2023/04/21 08:50:26;;;;;;;8.93;4.82;;;;;;;;;;5120380;28;20024;-60
2023/04/21 08:52:53;;;;;;;6.93;5.38;;;;;;;;;;5124164;28;20027;-60
2023/04/21 08:55:20;;;;;;;7.75;5.15;;;;;;;;;;5122690;28;20016;-62
2023/04/21 08:57:46;;;;;;;6.40;4.70;;;;;;;;;;5109871;28;20061;-60
2023/04/21 09:00:12;;;;;;;5.32;4.82;;;;;;;;;;5113562;28;20019;-60
2023/04/21 09:02:57;;;;;;;5.07;4.57;;;;;;;;;;5127471;28;20031;-60
2023/04/21 09:05:24;;;;;;;6.35;5.40;;;;;;;;;;5110516;28;20509;-63
2023/04/21 09:07:50;;;;;;;6.20;4.72;;;;;;;;;;5123714;28;20026;-59
2023/04/21 09:10:22;;;;;;;5.82;5.22;;;;;;;;;;5114384;28;20035;-60
2023/04/21 09:12:54;;;;;;;10.15;5.50;;;;;;;;;;5098802;28;20022;-64
2023/04/21 09:15:21;;;;;;;5.85;5.20;;;;;;;;;;5122251;27;20028;-60
2023/04/21 09:17:55;;;;;;;5.30;4.47;;;;;;;;;;5123157;28;20035;-60
2023/04/21 09:20:21;;;;;;;5.22;4.72;;;;;;;;;;5114150;27;20028;-60
2023/04/21 09:22:49;;;;;;;6.63;5.35;;;;;;;;;;5115265;28;20065;-60
2023/04/21 09:25:16;;;;;;;6.68;4.63;;;;;;;;;;5122806;27;20376;-61
2023/04/21 09:27:42;;;;;;;5.93;4.50;;;;;;;;;;5121796;28;20481;-60
2023/04/21 09:30:09;;;;;;;4.82;3.95;;;;;;;;;;5114860;28;20037;-62
2023/04/21 09:32:40;;;;;;;8.00;4.40;;;;;;;;;;5116285;27;20798;-66
2023/04/21 09:35:10;;;;;;;5.65;4.72;;;;;;;;;;5127469;27;20019;-60
2023/04/21 09:37:37;;;;;;;5.70;4.68;;;;;;;;;;5124599;27;20248;-64
2023/04/21 09:40:03;;;;;;;5.63;4.32;;;;;;;;;;5119316;27;20023;-60
2023/04/21 09:42:29;;;;;;;5.32;3.63;;;;;;;;;;5130479;27;20027;-62
2023/04/21 09:44:56;;;;;;;5.93;4.15;;;;;;;;;;5119459;27;20046;-60
2023/04/21 09:47:22;;;;;;;5.10;4.10;;;;;;;;;;5125313;27;20023;-60
2023/04/21 09:49:51;;;;;;;5.68;3.70;;;;;;;;;;5126541;27;20020;-60
2023/04/21 09:52:18;;;;;;;5.38;3.78;;;;;;;;;;5117861;27;20599;-60
2023/04/21 09:54:57;;;;;;;5.10;3.63;;;;;;;;;;5105553;27;20023;-60
2023/04/21 09:57:26;;;;;;;5.80;3.65;;;;;;;;;;5123834;27;20048;-64
2023/04/21 10:00:04;;;;;;;4.63;3.47;;;;;;;;;;5115261;27;20019;-66
2023/04/21 10:02:30;;;;;;;4.35;3.88;;;;;;;;;;5130562;27;20056;-62
2023/04/21 10:04:57;;;;;;;4.80;3.53;;;;;;;;;;5118039;27;20031;-60
2023/04/21 10:07:23;;;;;;;4.78;3.75;;;;;;;;;;5123047;27;20023;-66
2023/04/21 10:09:53;;;;;;;8.85;3.88;;;;;;;;;;5120961;27;20376;-61
2023/04/21 10:12:19;;;;;;;4.75;4.00;;;;;;;;;;5116383;27;20511;-60
2023/04/21 10:14:45;;;;;;;5.35;3.83;;;;;;;;;;5129966;27;20027;-60
2023/04/21 10:17:11;;;;;;;5.50;3.85;;;;;;;;;;5121307;27;20783;-61
2023/04/21 10:19:47;;;;;;;6.43;3.90;;;;;;;;;;5121288;27;20035;-63
2023/04/21 10:22:13;;;;;;;4.57;3.63;;;;;;;;;;5114389;27;20022;-60
2023/04/21 10:24:39;;;;;;;7.97;4.15;;;;;;;;;;5116234;27;20027;-60
2023/04/21 10:27:09;;;;;;;7.55;3.55;;;;;;;;;;5125464;27;20015;-59
2023/04/21 10:29:35;;;;;;;5.30;3.90;;;;;;;;;;5119464;27;20081;-60
2023/04/21 10:32:01;;;;;;;6.63;3.90;;;;;;;;;;5128008;27;20490;-60
2023/04/21 10:34:35;;;;;;;4.45;3.72;;;;;;;;;;5117128;27;20039;-59
2023/04/21 10:37:04;;;;;;;6.15;4.25;;;;;;;;;;5127787;27;20047;-60
2023/04/21 10:39:37;;;;;;;8.27;4.28;;;;;;;;;;5123081;27;20019;-60
2023/04/21 10:42:14;;;;;;;5.53;4.03;;;;;;;;;;5119069;27;20529;-62
2023/04/21 10:44:44;;;;;;;9.55;4.75;;;;;;;;;;5129050;27;20055;-60
2023/04/21 10:47:10;;;;;;;9.73;4.45;;;;;;;;;;5120315;27;20474;-61
2023/04/21 10:49:39;;;;;;;10.15;4.95;;;;;;;;;;5116834;27;20094;-60
2023/04/21 10:52:05;;;;;;;11.30;5.18;;;;;;;;;;5113472;27;20043;-60
2023/04/21 10:54:46;;;;;;;12.38;5.55;;;;;;;;;;5129433;27;20479;-62
2023/04/21 10:57:16;;;;;;;13.82;5.25;;;;;;;;;;5120824;27;20492;-69
2023/04/21 10:59:43;;;;;;;11.27;5.25;;;;;;;;;;5120952;27;20387;-70
2023/04/21 11:02:13;;;;;;;16.38;5.55;;;;;;;;;;5123814;27;20015;-70
2023/04/21 11:04:43;;;;;;;7.35;5.15;;;;;;;;;;5129446;27;20031;-63
2023/04/21 11:07:12;;;;;;;12.07;6.40;;;;;;;;;;5120086;27;20030;-68
2023/04/21 11:09:39;;;;;;;9.40;5.68;;;;;;;;;;5121477;27;20031;-66
2023/04/21 11:12:07;;;;;;;11.23;5.07;;;;;;;;;;5127884;27;20050;-70
2023/04/21 11:14:34;;;;;;;9.27;5.65;;;;;;;;;;5115631;27;20016;-70
2023/04/21 11:17:01;;;;;;;10.02;4.88;;;;;;;;;;5125694;27;20019;-64
2023/04/21 11:19:27;;;;;;;6.68;4.43;;;;;;;;;;5110236;28;20020;-62
2023/04/21 11:21:53;;;;;;;8.75;4.72;;;;;;;;;;5094931;28;20027;-62
2023/04/21 11:24:20;;;;;;;7.13;4.68;;;;;;;;;;5110792;28;20028;-61
2023/04/21 11:26:46;;;;;;;8.80;4.63;;;;;;;;;;5109599;28;20027;-61
2023/04/21 11:29:13;;;;;;;8.40;4.90;;;;;;;;;;5111277;28;20023;-59
2023/04/21 11:31:40;;;;;;;7.18;4.60;;;;;;;;;;5111033;28;20088;-60
2023/04/21 11:34:06;;;;;;;9.45;4.40;;;;;;;;;;5109072;28;20035;-60
2023/04/21 11:36:53;;;;;;;7.28;4.35;;;;;;;;;;5111968;28;20131;-59
2023/04/21 11:39:21;;;;;;;9.85;4.95;;;;;;;;;;5111146;28;20477;-61
2023/04/21 11:41:48;;;;;;;9.10;4.70;;;;;;;;;;5110466;28;20031;-60
2023/04/21 11:44:29;;;;;;;7.35;4.90;;;;;;;;;;5112175;28;20048;-65
2023/04/21 11:46:55;;;;;;;6.53;4.78;;;;;;;;;;5113039;28;20035;-67
2023/04/21 11:49:24;;;;;;;11.70;4.80;;;;;;;;;;5111500;28;20484;-66
2023/04/21 11:51:50;;;;;;;10.75;4.60;;;;;;;;;;5110749;28;20034;-67
2023/04/21 11:54:17;;;;;;;7.85;4.80;;;;;;;;;;5111092;28;20015;-66
2023/04/21 11:56:46;;;;;;;6.05;4.68;;;;;;;;;;5111214;28;20032;-66
2023/04/21 11:59:13;;;;;;;6.95;4.55;;;;;;;;;;5112393;28;20027;-67
2023/04/21 12:01:45;;;;;;;7.22;4.32;;;;;;;;;;5112159;28;20057;-67
2023/04/21 12:04:19;;;;;;;7.75;4.35;;;;;;;;;;5112195;28;20040;-66
2023/04/21 12:06:45;;;;;;;6.72;4.35;;;;;;;;;;5111901;28;20020;-66
2023/04/21 12:09:18;;;;;;;8.68;5.30;;;;;;;;;;5111776;28;20102;-66
2023/04/21 12:11:47;;;;;;;7.38;5.22;;;;;;;;;;5111867;28;20026;-66
2023/04/21 12:14:15;;;;;;;7.07;4.55;;;;;;;;;;5112131;28;20066;-66
2023/04/21 12:16:41;;;;;;;8.82;4.95;;;;;;;;;;5111851;28;20012;-66
2023/04/21 12:19:07;;;;;;;7.93;4.70;;;;;;;;;;5112038;28;20034;-66
2023/04/21 12:21:33;;;;;;;9.02;4.20;;;;;;;;;;5111073;28;20031;-66
2023/04/21 12:24:00;;;;;;;5.90;4.75;;;;;;;;;;5110078;28;20044;-66
2023/04/21 12:26:26;;;;;;;9.25;4.80;;;;;;;;;;5112327;28;20061;-67
2023/04/21 12:28:52;;;;;;;8.13;4.82;;;;;;;;;;5111741;28;20028;-66
2023/04/21 12:31:18;;;;;;;5.70;4.38;;;;;;;;;;5111633;28;20414;-66
2023/04/21 12:33:44;;;;;;;8.50;4.85;;;;;;;;;;5110689;28;20042;-67
2023/04/21 12:36:10;;;;;;;7.80;4.65;;;;;;;;;;5111924;28;20077;-66
2023/04/21 12:38:37;;;;;;;6.20;4.70;;;;;;;;;;5111473;28;20035;-66
2023/04/21 12:41:03;;;;;;;8.68;4.32;;;;;;;;;;5111882;28;20015;-66
2023/04/21 12:43:29;;;;;;;5.50;3.90;;;;;;;;;;5111926;28;20039;-66
2023/04/21 12:45:55;;;;;;;4.93;4.30;;;;;;;;;;5111909;28;20023;-66
2023/04/21 12:48:21;;;;;;;7.78;4.68;;;;;;;;;;5111706;28;20153;-66
2023/04/21 12:50:47;;;;;;;7.00;4.75;;;;;;;;;;5111505;28;20102;-66
2023/04/21 12:53:13;;;;;;;8.48;4.70;;;;;;;;;;5111647;28;20034;-66
2023/04/21 12:55:39;;;;;;;6.63;4.60;;;;;;;;;;5111341;28;20027;-66
2023/04/21 12:58:06;;;;;;;5.55;4.60;;;;;;;;;;5111606;28;20028;-65
2023/04/21 13:00:34;;;;;;;7.13;4.97;;;;;;;;;;5111183;28;20073;-66
2023/04/21 13:03:00;;;;;;;12.32;5.85;;;;;;;;;;5111435;28;20110;-65
2023/04/21 13:05:26;;;;;;;8.40;4.57;;;;;;;;;;5111830;28;20027;-65
2023/04/21 13:07:53;;;;;;;5.43;4.40;;;;;;;;;;5114134;28;20111;-65
2023/04/21 13:10:20;;;;;;;8.18;4.95;;;;;;;;;;5115638;28;20028;-65
2023/04/21 13:12:45;;;;;;;6.35;4.38;;;;;;;;;;5115338;27;20030;-65
2023/04/21 13:15:12;;;;;;;4.70;4.22;;;;;;;;;;5115589;28;20099;-65
2023/04/21 13:17:38;;;;;;;6.95;4.55;;;;;;;;;;5115495;28;20489;-65
2023/04/21 13:20:05;;;;;;;5.93;4.75;;;;;;;;;;5115328;27;20034;-65
2023/04/21 13:22:31;;;;;;;9.63;4.28;;;;;;;;;;5115152;28;20028;-65
2023/04/21 13:24:57;;;;;;;6.70;4.18;;;;;;;;;;5115647;28;20023;-65
2023/04/21 13:27:23;;;;;;;5.07;4.57;;;;;;;;;;5115402;28;20099;-65
2023/04/21 13:29:49;;;;;;;5.88;4.40;;;;;;;;;;5115000;27;20031;-64
2023/04/21 13:32:15;;;;;;;5.97;4.45;;;;;;;;;;5115346;28;20040;-64
2023/04/21 13:34:41;;;;;;;6.05;4.43;;;;;;;;;;5114989;27;20023;-65
2023/04/21 13:37:09;;;;;;;5.97;4.55;;;;;;;;;;5115182;28;20023;-64
2023/04/21 13:39:35;;;;;;;9.25;5.05;;;;;;;;;;5114906;28;20492;-65
2023/04/21 13:42:01;;;;;;;5.25;4.43;;;;;;;;;;5115018;28;20031;-64
2023/04/21 13:44:27;;;;;;;7.05;4.03;;;;;;;;;;5115138;28;20039;-64
2023/04/21 13:46:55;;;;;;;4.38;3.78;;;;;;;;;;5114682;28;20024;-64
2023/04/21 13:49:20;;;;;;;6.43;4.10;;;;;;;;;;5114851;28;20050;-65
2023/04/21 13:51:46;;;;;;;4.78;4.28;;;;;;;;;;5114664;28;20491;-64
2023/04/21 13:54:12;;;;;;;5.63;4.28;;;;;;;;;;5114827;28;20144;-65
2023/04/21 13:56:38;;;;;;;5.82;4.25;;;;;;;;;;5114561;28;20437;-65
2023/04/21 13:59:05;;;;;;;5.82;3.75;;;;;;;;;;5114646;28;20034;-64
2023/04/21 14:01:31;;;;;;;5.90;3.83;;;;;;;;;;5114557;28;20065;-64
2023/04/21 14:03:57;;;;;;;6.50;4.20;;;;;;;;;;5114948;28;20093;-64
2023/04/21 14:06:23;;;;;;;5.10;4.18;;;;;;;;;;5114585;28;20020;-64
2023/04/21 14:08:49;;;;;;;6.35;4.28;;;;;;;;;;5114473;28;20938;-64
2023/04/21 14:11:15;;;;;;;4.68;3.92;;;;;;;;;;5113911;28;20065;-64
2023/04/21 14:13:41;;;;;;;4.53;4.00;;;;;;;;;;5112536;28;20031;-64
2023/04/21 14:16:07;;;;;;;5.00;4.00;;;;;;;;;;5114468;28;20106;-64
2023/04/21 14:18:33;;;;;;;4.30;3.90;;;;;;;;;;5111456;28;20024;-64
2023/04/21 14:20:59;;;;;;;4.68;3.72;;;;;;;;;;5114128;28;20031;-64
2023/04/21 14:23:25;;;;;;;5.68;4.35;;;;;;;;;;5114428;28;20031;-67
2023/04/21 14:25:51;;;;;;;5.07;3.95;;;;;;;;;;5113919;28;20098;-64
2023/04/21 14:28:17;;;;;;;4.82;3.55;;;;;;;;;;5114134;28;20039;-64
2023/04/21 14:30:43;;;;;;;5.13;4.07;;;;;;;;;;5113942;28;20095;-64
2023/04/21 14:33:09;;;;;;;5.30;4.10;;;;;;;;;;5113967;28;20030;-64
2023/04/21 14:35:36;;;;;;;3.95;3.55;;;;;;;;;;5113846;27;20024;-63
2023/04/21 14:38:02;;;;;;;5.13;4.05;;;;;;;;;;5114125;28;20089;-63
2023/04/21 14:40:28;;;;;;;4.47;3.75;;;;;;;;;;5114267;28;20475;-63